Terminal Aerodrome Forecast
Issued by NWS

Home | Current Version | Previous Version | Text Only | Print | Product List | Glossary On
Versions: 1 2 3 4 5 6 7 8 9 10 11 12 13 14 15 16 17 18
000
FTAK31 PAJN 020200 AAA
TAFAJN
TAF AMD
PAJN 020230Z 0202/0224 10010KT P6SM -RA FEW040 BKN070 OVC150
     FM020500 11012G22KT 6SM -RA BKN025 OVC050
     FM020900 11018G28KT 5SM -RA BR SCT015 OVC025 WS020/14035KT=

USA.gov is the U.S. government's official web portal to all federal, state and local government web resources and services.